Terminal Aerodrome Forecast
Issued by NWS

Home | Current Version | Previous Version | Text Only | Print | Product List | Glossary Off
Versions: 1 2 3 4 5 6 7 8 9 10 11 12 13 14 15 16 17 18 19 20 21 22 23 24 25 26 27 28 29 30 31 32

000
FTUS43 KLOT 300300 AAB
TAFDPA
TAF AMD
KDPA 300301Z 3003/3024 27005KT P6SM SCT060 SCT120 BKN250
      TEMPO 3003/3004 32017G27KT -SHRA BKN060
     FM301500 30009KT P6SM SCT045 SCT150
     FM301900 30009KT P6SM VCSH BKN045=

USA.gov is the U.S. government's official web portal to all federal, state and local government web resources and services.